Monte Toledo — CQRA — position and weather

sailwx.info

Track history (hours):
 
Tides and Currents Weather Stations Pressure Air Temp Water Temp Dewpoint Dewpoint Depression Visibility Wind Speed Wind Dir Waves Ship Positions

Monte Toledo

Last reported at 2017-Apr-03 21:23 UTC. Time now 2017-Apr-26 23:41 UTC.
Position N 37°11' W 030°59'.
Warning: this ship's position is 23 days out of date.

Length 274 m; draft 15.4 m.

Type: Tanker. MMSI: 255740000.

Date/timePositionNaut miles runAvg speedWind from/ knotsBaromVisibWave heightAir tempDewpointWater temp
2017-Apr-03 21:23N 37°11' W 030°59'4 9.9
2017-Apr-03 20:59N 37°11' W 030°54'6 9.9
2017-Apr-03 20:24N 37°10' W 030°47'4 9.3
2017-Apr-03 20:00N 37°09' W 030°42'7 9.3
2017-Apr-03 19:14N 37°08' W 030°33'2 9.0
2017-Apr-03 18:58N 37°08' W 030°30'4 9.4
2017-Apr-03 18:30N 37°07' W 030°25'19 9.7
2017-Apr-03 16:33N 37°04' W 030°01'0 9.7
2017-Apr-03 16:30N 37°04' W 030°01'510.0
2017-Apr-03 16:00N 37°03' W 029°55'5 9.8
2017-Apr-03 15:29N 37°02' W 029°48'7 9.4
2017-Apr-03 14:44N 37°01' W 029°40'9 9.4
2017-Apr-03 13:47N 36°59' W 029°29'15 9.3
2017-Apr-03 12:12N 36°57' W 029°11'53 9.3
2017-Apr-03 06:27N 36°48' W 028°05'4 9.1
2017-Apr-03 05:59N 36°47' W 027°60'7 9.3
2017-Apr-03 05:15N 36°46' W 027°51'8 9.1
2017-Apr-03 04:19N 36°44' W 027°41'5 9.4
2017-Apr-03 03:50N 36°43' W 027°35'3 9.3
2017-Apr-03 03:30N 36°43' W 027°32'5 9.8
2017-Apr-03 03:00N 36°42' W 027°26'5 9.4
2017-Apr-03 02:29N 36°41' W 027°19'4 9.4
2017-Apr-03 02:00N 36°40' W 027°14'5 9.2
2017-Apr-03 01:30N 36°40' W 027°08'5 9.2
2017-Apr-03 01:00N 36°39' W 027°03'7 9.5
2017-Apr-03 00:16N 36°38' W 026°54'3 9.3
2017-Apr-02 23:59N 36°37' W 026°51'5 9.4
2017-Apr-02 23:27N 36°36' W 026°45'6 9.5
2017-Apr-02 22:49N 36°35' W 026°37'10 9.2
2017-Apr-02 21:41N 36°34' W 026°24'3 9.0
2017-Apr-02 21:21N 36°33' W 026°21'6 9.3
2017-Apr-02 20:41N 36°32' W 026°13'2 9.3
2017-Apr-02 20:29N 36°32' W 026°11'4 9.3
2017-Apr-02 20:00N 36°31' W 026°05'5 9.4
2017-Apr-02 19:30N 36°30' W 025°60'5 9.3
2017-Apr-02 19:00N 36°30' W 025°54'4 9.0
2017-Apr-02 18:31N 36°30' W 025°48'5 9.2
2017-Apr-02 18:00N 36°30' W 025°43'5 9.2
2017-Apr-02 17:30N 36°30' W 025°37'5 9.2
2017-Apr-02 17:00N 36°30' W 025°31'5 9.2
2017-Apr-02 16:30N 36°29' W 025°25'5 9.1
2017-Apr-02 16:00N 36°29' W 025°20'5 9.1
2017-Apr-02 15:30N 36°29' W 025°14'5 9.2
2017-Apr-02 15:01N 36°29' W 025°08'5 9.3
2017-Apr-02 14:31N 36°29' W 025°03'9 9.3
2017-Apr-02 13:30N 36°28' W 024°51'5 9.1
2017-Apr-02 13:00N 36°28' W 024°46'5 9.6
2017-Apr-02 12:30N 36°28' W 024°39'5 9.6
2017-Apr-02 12:00N 36°27' W 024°34'5 9.8
2017-Apr-02 11:30N 36°27' W 024°27'5 9.8
2017-Apr-02 11:01N 36°27' W 024°21'510.0
2017-Apr-02 10:30N 36°27' W 024°15'510.2
2017-Apr-02 10:00N 36°27' W 024°09'510.2
2017-Apr-02 09:31N 36°27' W 024°03'510.3
2017-Apr-02 09:00N 36°26' W 023°56'510.3
2017-Apr-02 08:30N 36°26' W 023°50'510.5
2017-Apr-02 07:59N 36°26' W 023°43'610.7
2017-Apr-02 07:25N 36°26' W 023°35'610.9
2017-Apr-02 06:50N 36°26' W 023°27'710.6
2017-Apr-02 06:11N 36°26' W 023°19'210.6
2017-Apr-02 05:57N 36°26' W 023°16'511.1
2017-Apr-02 05:29N 36°25' W 023°09'511.1
2017-Apr-02 05:00N 36°25' W 023°03'710.8
2017-Apr-02 04:23N 36°25' W 022°54'511.0
2017-Apr-02 03:54N 36°25' W 022°48'411.3
2017-Apr-02 03:30N 36°25' W 022°42'811.4
2017-Apr-02 02:47N 36°24' W 022°32'512.0
2017-Apr-02 02:24N 36°24' W 022°26'811.8
2017-Apr-02 01:44N 36°23' W 022°17'312.0
2017-Apr-02 01:30N 36°23' W 022°13'711.9
2017-Apr-02 00:56N 36°23' W 022°05'  
2017-Mar-30 18:27N 35°60' W 010°08'910.1
2017-Mar-30 17:32N 35°59' W 009°57'10 9.9
2017-Mar-30 16:33N 35°59' W 009°45'1010.2
2017-Mar-30 15:33N 35°58' W 009°32'1010.3
2017-Mar-30 14:33N 35°57' W 009°20'18111.0
2017-Mar-29 22:09N 35°58' W 005°36'610.9
2017-Mar-29 21:34N 36°00' W 005°29'6 6.1
2017-Mar-29 20:33N 36°04' W 005°22'1 1.2
2017-Mar-29 19:34N 36°04' W 005°21'8 8.0
2017-Mar-29 18:33N 36°05' W 005°11'  
2017-Mar-26 19:33N 36°53' E 012°41'1212.1
2017-Mar-26 18:33N 36°50' E 012°55'1212.4
2017-Mar-26 17:33N 36°46' E 013°10'1211.9
2017-Mar-26 16:33N 36°42' E 013°24'1211.5
2017-Mar-26 15:33N 36°38' E 013°37'1211.7
2017-Mar-26 14:33N 36°35' E 013°51'1212.1
2017-Mar-26 13:33N 36°31' E 014°06'1211.8
2017-Mar-26 12:33N 36°28' E 014°20'1211.7
2017-Mar-26 11:33N 36°24' E 014°34'1211.8
2017-Mar-26 10:30N 36°21' E 014°48'  
Track history (hours):
 
Tides and Currents Weather Stations Pressure Air Temp Water Temp Dewpoint Dewpoint Depression Visibility Wind Speed Wind Dir Waves Ship Positions

Monte Toledo

Last reported at 2017-Apr-03 21:23 UTC. Time now 2017-Apr-26 23:41 UTC.
Position N 37°11' W 030°59'.
Warning: this ship's position is 23 days out of date.

Length 274 m; draft 15.4 m.

Type: Tanker. MMSI: 255740000.

Date/timePositionNaut miles runAvg speedWind from/ knotsBaromVisibWave heightAir tempDewpointWater temp
2017-Apr-03 21:23N 37°11' W 030°59'4 9.9
2017-Apr-03 20:59N 37°11' W 030°54'6 9.9
2017-Apr-03 20:24N 37°10' W 030°47'4 9.3
2017-Apr-03 20:00N 37°09' W 030°42'7 9.3
2017-Apr-03 19:14N 37°08' W 030°33'2 9.0
2017-Apr-03 18:58N 37°08' W 030°30'4 9.4
2017-Apr-03 18:30N 37°07' W 030°25'19 9.7
2017-Apr-03 16:33N 37°04' W 030°01'0 9.7
2017-Apr-03 16:30N 37°04' W 030°01'510.0
2017-Apr-03 16:00N 37°03' W 029°55'5 9.8
2017-Apr-03 15:29N 37°02' W 029°48'7 9.4
2017-Apr-03 14:44N 37°01' W 029°40'9 9.4
2017-Apr-03 13:47N 36°59' W 029°29'15 9.3
2017-Apr-03 12:12N 36°57' W 029°11'53 9.3
2017-Apr-03 06:27N 36°48' W 028°05'4 9.1
2017-Apr-03 05:59N 36°47' W 027°60'7 9.3
2017-Apr-03 05:15N 36°46' W 027°51'8 9.1
2017-Apr-03 04:19N 36°44' W 027°41'5 9.4
2017-Apr-03 03:50N 36°43' W 027°35'3 9.3
2017-Apr-03 03:30N 36°43' W 027°32'5 9.8
2017-Apr-03 03:00N 36°42' W 027°26'5 9.4
2017-Apr-03 02:29N 36°41' W 027°19'4 9.4
2017-Apr-03 02:00N 36°40' W 027°14'5 9.2
2017-Apr-03 01:30N 36°40' W 027°08'5 9.2
2017-Apr-03 01:00N 36°39' W 027°03'7 9.5
2017-Apr-03 00:16N 36°38' W 026°54'3 9.3
2017-Apr-02 23:59N 36°37' W 026°51'5 9.4
2017-Apr-02 23:27N 36°36' W 026°45'6 9.5
2017-Apr-02 22:49N 36°35' W 026°37'10 9.2
2017-Apr-02 21:41N 36°34' W 026°24'3 9.0
2017-Apr-02 21:21N 36°33' W 026°21'6 9.3
2017-Apr-02 20:41N 36°32' W 026°13'2 9.3
2017-Apr-02 20:29N 36°32' W 026°11'4 9.3
2017-Apr-02 20:00N 36°31' W 026°05'5 9.4
2017-Apr-02 19:30N 36°30' W 025°60'5 9.3
2017-Apr-02 19:00N 36°30' W 025°54'4 9.0
2017-Apr-02 18:31N 36°30' W 025°48'5 9.2
2017-Apr-02 18:00N 36°30' W 025°43'5 9.2
2017-Apr-02 17:30N 36°30' W 025°37'5 9.2
2017-Apr-02 17:00N 36°30' W 025°31'5 9.2
2017-Apr-02 16:30N 36°29' W 025°25'5 9.1
2017-Apr-02 16:00N 36°29' W 025°20'5 9.1
2017-Apr-02 15:30N 36°29' W 025°14'5 9.2
2017-Apr-02 15:01N 36°29' W 025°08'5 9.3
2017-Apr-02 14:31N 36°29' W 025°03'9 9.3
2017-Apr-02 13:30N 36°28' W 024°51'5 9.1
2017-Apr-02 13:00N 36°28' W 024°46'5 9.6
2017-Apr-02 12:30N 36°28' W 024°39'5 9.6
2017-Apr-02 12:00N 36°27' W 024°34'5 9.8
2017-Apr-02 11:30N 36°27' W 024°27'5 9.8
2017-Apr-02 11:01N 36°27' W 024°21'510.0
2017-Apr-02 10:30N 36°27' W 024°15'510.2
2017-Apr-02 10:00N 36°27' W 024°09'510.2
2017-Apr-02 09:31N 36°27' W 024°03'510.3
2017-Apr-02 09:00N 36°26' W 023°56'510.3
2017-Apr-02 08:30N 36°26' W 023°50'510.5
2017-Apr-02 07:59N 36°26' W 023°43'610.7
2017-Apr-02 07:25N 36°26' W 023°35'610.9
2017-Apr-02 06:50N 36°26' W 023°27'710.6
2017-Apr-02 06:11N 36°26' W 023°19'210.6
2017-Apr-02 05:57N 36°26' W 023°16'511.1
2017-Apr-02 05:29N 36°25' W 023°09'511.1
2017-Apr-02 05:00N 36°25' W 023°03'710.8
2017-Apr-02 04:23N 36°25' W 022°54'511.0
2017-Apr-02 03:54N 36°25' W 022°48'411.3
2017-Apr-02 03:30N 36°25' W 022°42'811.4
2017-Apr-02 02:47N 36°24' W 022°32'512.0
2017-Apr-02 02:24N 36°24' W 022°26'811.8
2017-Apr-02 01:44N 36°23' W 022°17'312.0
2017-Apr-02 01:30N 36°23' W 022°13'711.9
2017-Apr-02 00:56N 36°23' W 022°05'  
2017-Mar-30 18:27N 35°60' W 010°08'910.1
2017-Mar-30 17:32N 35°59' W 009°57'10 9.9
2017-Mar-30 16:33N 35°59' W 009°45'1010.2
2017-Mar-30 15:33N 35°58' W 009°32'1010.3
2017-Mar-30 14:33N 35°57' W 009°20'18111.0
2017-Mar-29 22:09N 35°58' W 005°36'610.9
2017-Mar-29 21:34N 36°00' W 005°29'6 6.1
2017-Mar-29 20:33N 36°04' W 005°22'1 1.2
2017-Mar-29 19:34N 36°04' W 005°21'8 8.0
2017-Mar-29 18:33N 36°05' W 005°11'  
2017-Mar-26 19:33N 36°53' E 012°41'1212.1
2017-Mar-26 18:33N 36°50' E 012°55'1212.4
2017-Mar-26 17:33N 36°46' E 013°10'1211.9
2017-Mar-26 16:33N 36°42' E 013°24'1211.5
2017-Mar-26 15:33N 36°38' E 013°37'1211.7
2017-Mar-26 14:33N 36°35' E 013°51'1212.1
2017-Mar-26 13:33N 36°31' E 014°06'1211.8
2017-Mar-26 12:33N 36°28' E 014°20'1211.7
2017-Mar-26 11:33N 36°24' E 014°34'1211.8
2017-Mar-26 10:30N 36°21' E 014°48'  

Dump ship's entire track history